Weather at Penticton Airport

Public forecast

Using degrees Celsius for public forecast. Weather courtesy of forecast.io.

Current aviation weather report (METAR) for Penticton Airport

Retrieved 2021/10/20 20:00 UTC (1 hour ago):

CYYF 202000Z 18023G32KT 15SM -RA BKN054 OVC100 14/06 A2981 RMK SC5AC3 SLP104 DENSITY ALT 1400FT

Aviation forecast (TAF) for Penticton Airport

Retrieved 2021/10/20 19:45 UTC (2 hours ago):

TAF CYYF 201842Z 2019/2107 19018G28KT P6SM BKN060 OVC120 TEMPO 2019/2102 P6SM -RA BKN020 OVC040 BECMG 2100/2102 18010KT FM210200 17009KT P6SM SCT020 BKN080 TEMPO 2102/2107 BKN020 BKN080 RMK NXT FCST BY 210100Z